sensor_id;sensor_type;location;lat;lon;timestamp;pressure;altitude;pressure_sealevel;temperature;humidity
46087;BME280;31824;49.648;8.640;2024-01-25T00:01:45;101555.34;;;9.23;100.00
46087;BME280;31824;49.648;8.640;2024-01-25T00:04:47;101548.25;;;9.15;100.00
46087;BME280;31824;49.648;8.640;2024-01-25T00:07:58;101548.09;;;9.06;100.00
46087;BME280;31824;49.648;8.640;2024-01-25T00:11:01;101548.06;;;9.13;100.00
46087;BME280;31824;49.648;8.640;2024-01-25T00:14:03;101544.88;;;9.16;100.00
46087;BME280;31824;49.648;8.640;2024-01-25T00:17:07;101539.66;;;9.01;100.00
46087;BME280;31824;49.648;8.640;2024-01-25T00:20:10;101547.34;;;9.00;100.00
46087;BME280;31824;49.648;8.640;2024-01-25T00:23:14;101548.66;;;9.03;100.00
46087;BME280;31824;49.648;8.640;2024-01-25T00:26:16;101545.47;;;9.06;100.00
46087;BME280;31824;49.648;8.640;2024-01-25T00:29:18;101543.06;;;8.93;100.00
46087;BME280;31824;49.648;8.640;2024-01-25T00:32:21;101544.16;;;9.02;100.00
46087;BME280;31824;49.648;8.640;2024-01-25T00:35:24;101541.53;;;9.02;100.00
46087;BME280;31824;49.648;8.640;2024-01-25T00:38:26;101543.78;;;8.92;100.00
46087;BME280;31824;49.648;8.640;2024-01-25T00:41:32;101540.81;;;8.89;100.00
46087;BME280;31824;49.648;8.640;2024-01-25T00:44:34;101543.63;;;8.83;100.00
46087;BME280;31824;49.648;8.640;2024-01-25T00:47:38;101539.31;;;8.84;100.00
46087;BME280;31824;49.648;8.640;2024-01-25T00:50:40;101544.97;;;8.72;100.00
46087;BME280;31824;49.648;8.640;2024-01-25T00:53:42;101553.00;;;8.74;100.00
46087;BME280;31824;49.648;8.640;2024-01-25T00:56:44;101556.75;;;8.76;100.00
46087;BME280;31824;49.648;8.640;2024-01-25T00:59:47;101548.72;;;8.60;100.00
46087;BME280;31824;49.648;8.640;2024-01-25T01:02:50;101541.41;;;8.57;100.00
46087;BME280;31824;49.648;8.640;2024-01-25T01:05:54;101537.66;;;8.63;100.00
46087;BME280;31824;49.648;8.640;2024-01-25T01:08:56;101532.06;;;8.59;100.00
46087;BME280;31824;49.648;8.640;2024-01-25T01:11:58;101532.06;;;8.59;100.00
46087;BME280;31824;49.648;8.640;2024-01-25T01:15:00;101529.22;;;8.58;100.00
46087;BME280;31824;49.648;8.640;2024-01-25T01:18:04;101523.47;;;8.46;100.00
46087;BME280;31824;49.648;8.640;2024-01-25T01:21:10;101525.63;;;8.43;100.00
46087;BME280;31824;49.648;8.640;2024-01-25T01:24:11;101522.84;;;8.27;100.00
46087;BME280;31824;49.648;8.640;2024-01-25T01:27:14;101524.16;;;8.16;100.00
46087;BME280;31824;49.648;8.640;2024-01-25T01:30:15;101516.66;;;8.26;100.00
46087;BME280;31824;49.648;8.640;2024-01-25T01:33:18;101523.03;;;8.28;100.00
46087;BME280;31824;49.648;8.640;2024-01-25T01:36:23;101526.75;;;8.31;100.00
46087;BME280;31824;49.648;8.640;2024-01-25T01:39:25;101536.88;;;8.27;100.00
46087;BME280;31824;49.648;8.640;2024-01-25T01:42:27;101525.84;;;8.23;100.00
46087;BME280;31824;49.648;8.640;2024-01-25T01:45:30;101537.59;;;8.26;100.00
46087;BME280;31824;49.648;8.640;2024-01-25T01:48:33;101535.94;;;8.34;100.00
46087;BME280;31824;49.648;8.640;2024-01-25T01:51:35;101544.53;;;8.26;100.00
46087;BME280;31824;49.648;8.640;2024-01-25T01:54:37;101544.31;;;8.10;100.00
46087;BME280;31824;49.648;8.640;2024-01-25T01:57:39;101541.72;;;8.24;100.00
46087;BME280;31824;49.648;8.640;2024-01-25T02:00:42;101547.16;;;8.26;100.00
46087;BME280;31824;49.648;8.640;2024-01-25T02:03:45;101544.53;;;8.26;100.00
46087;BME280;31824;49.648;8.640;2024-01-25T02:06:48;101546.78;;;8.23;100.00
46087;BME280;31824;49.648;8.640;2024-01-25T02:09:50;101551.47;;;8.40;100.00
46087;BME280;31824;49.648;8.640;2024-01-25T02:12:51;101550.72;;;8.34;100.00
46087;BME280;31824;49.648;8.640;2024-01-25T02:15:53;101556.13;;;8.21;100.00
46087;BME280;31824;49.648;8.640;2024-01-25T02:18:56;101555.94;;;8.26;100.00
46087;BME280;31824;49.648;8.640;2024-01-25T02:22:05;101552.56;;;8.27;100.00
46087;BME280;31824;49.648;8.640;2024-01-25T02:25:09;101543.41;;;8.17;100.00
46087;BME280;31824;49.648;8.640;2024-01-25T02:28:11;101554.09;;;8.25;100.00
46087;BME280;31824;49.648;8.640;2024-01-25T02:31:13;101547.75;;;8.38;100.00
46087;BME280;31824;49.648;8.640;2024-01-25T02:34:15;101556.13;;;8.14;100.00
46087;BME280;31824;49.648;8.640;2024-01-25T02:37:17;101555.53;;;8.09;100.00
46087;BME280;31824;49.648;8.640;2024-01-25T02:40:20;101561.53;;;8.08;100.00
46087;BME280;31824;49.648;8.640;2024-01-25T02:43:22;101556.66;;;8.04;100.00
46087;BME280;31824;49.648;8.640;2024-01-25T02:46:24;101554.59;;;8.08;100.00
46087;BME280;31824;49.648;8.640;2024-01-25T02:49:26;101558.19;;;8.31;100.00
46087;BME280;31824;49.648;8.640;2024-01-25T02:52:28;101560.25;;;8.26;100.00
46087;BME280;31824;49.648;8.640;2024-01-25T02:55:31;101556.31;;;8.22;100.00
46087;BME280;31824;49.648;8.640;2024-01-25T02:58:33;101565.47;;;8.26;100.00
46087;BME280;31824;49.648;8.640;2024-01-25T03:01:40;101557.41;;;8.17;100.00
46087;BME280;31824;49.648;8.640;2024-01-25T03:04:52;101553.09;;;8.03;100.00
46087;BME280;31824;49.648;8.640;2024-01-25T03:07:55;101556.84;;;8.13;100.00
46087;BME280;31824;49.648;8.640;2024-01-25T03:10:58;101551.97;;;8.01;100.00
46087;BME280;31824;49.648;8.640;2024-01-25T03:14:01;101556.59;;;7.82;100.00
46087;BME280;31824;49.648;8.640;2024-01-25T03:17:03;101546.25;;;7.69;100.00
46087;BME280;31824;49.648;8.640;2024-01-25T03:20:06;101558.41;;;7.69;100.00
46087;BME280;31824;49.648;8.640;2024-01-25T03:23:09;101566.44;;;7.63;100.00
46087;BME280;31824;49.648;8.640;2024-01-25T03:26:12;101558.53;;;7.56;100.00
46087;BME280;31824;49.648;8.640;2024-01-25T03:29:14;101559.25;;;7.97;100.00
46087;BME280;31824;49.648;8.640;2024-01-25T03:32:15;101570.66;;;7.97;100.00
46087;BME280;31824;49.648;8.640;2024-01-25T03:35:25;101573.03;;;7.88;100.00
46087;BME280;31824;49.648;8.640;2024-01-25T03:38:27;101576.22;;;7.86;100.00
46087;BME280;31824;49.648;8.640;2024-01-25T03:41:31;101577.69;;;7.76;100.00
46087;BME280;31824;49.648;8.640;2024-01-25T03:44:32;101579.91;;;7.73;100.00
46087;BME280;31824;49.648;8.640;2024-01-25T03:47:36;101570.19;;;7.72;100.00
46087;BME280;31824;49.648;8.640;2024-01-25T03:50:37;101568.34;;;7.71;100.00
46087;BME280;31824;49.648;8.640;2024-01-25T03:53:40;101570.69;;;7.55;100.00
46087;BME280;31824;49.648;8.640;2024-01-25T03:56:45;101572.28;;;7.40;100.00
46087;BME280;31824;49.648;8.640;2024-01-25T03:59:47;101575.78;;;7.26;100.00
46087;BME280;31824;49.648;8.640;2024-01-25T04:02:50;101588.31;;;7.29;100.00
46087;BME280;31824;49.648;8.640;2024-01-25T04:05:52;101586.97;;;7.25;100.00
46087;BME280;31824;49.648;8.640;2024-01-25T04:08:53;101592.16;;;7.18;100.00
46087;BME280;31824;49.648;8.640;2024-01-25T04:11:57;101601.03;;;7.33;100.00
46087;BME280;31824;49.648;8.640;2024-01-25T04:14:59;101609.25;;;7.36;100.00
46087;BME280;31824;49.648;8.640;2024-01-25T04:18:19;101625.28;;;7.32;100.00
46087;BME280;31824;49.648;8.640;2024-01-25T04:23:58;101620.06;;;7.32;100.00
46087;BME280;31824;49.648;8.640;2024-01-25T04:27:00;101619.81;;;7.51;100.00
46087;BME280;31824;49.648;8.640;2024-01-25T04:30:01;101625.78;;;7.50;100.00
46087;BME280;31824;49.648;8.640;2024-01-25T04:33:05;101635.41;;;7.36;100.00
46087;BME280;31824;49.648;8.640;2024-01-25T04:36:07;101641.84;;;7.25;100.00
46087;BME280;31824;49.648;8.640;2024-01-25T04:39:10;101640.63;;;7.09;100.00
46087;BME280;31824;49.648;8.640;2024-01-25T04:42:12;101648.81;;;7.05;100.00
46087;BME280;31824;49.648;8.640;2024-01-25T04:45:14;101646.78;;;7.09;100.00
46087;BME280;31824;49.648;8.640;2024-01-25T04:48:16;101648.09;;;7.33;100.00
46087;BME280;31824;49.648;8.640;2024-01-25T04:51:19;101663.31;;;7.23;100.00
46087;BME280;31824;49.648;8.640;2024-01-25T04:54:23;101660.25;;;7.13;100.00
46087;BME280;31824;49.648;8.640;2024-01-25T04:57:24;101657.66;;;6.92;100.00
46087;BME280;31824;49.648;8.640;2024-01-25T05:00:26;101653.56;;;6.74;100.00
46087;BME280;31824;49.648;8.640;2024-01-25T05:03:28;101659.78;;;6.62;100.00
46087;BME280;31824;49.648;8.640;2024-01-25T05:06:40;101657.84;;;6.54;100.00
46087;BME280;31824;49.648;8.640;2024-01-25T05:09:43;101661.06;;;6.38;100.00
46087;BME280;31824;49.648;8.640;2024-01-25T05:12:46;101676.97;;;6.27;100.00
46087;BME280;31824;49.648;8.640;2024-01-25T05:15:48;101674.50;;;6.08;100.00
46087;BME280;31824;49.648;8.640;2024-01-25T05:19:10;101665.94;;;5.97;100.00
46087;BME280;31824;49.648;8.640;2024-01-25T05:25:15;101659.78;;;5.83;100.00
46087;BME280;31824;49.648;8.640;2024-01-25T05:28:17;101655.75;;;5.72;100.00
46087;BME280;31824;49.648;8.640;2024-01-25T05:31:19;101640.66;;;6.16;100.00
46087;BME280;31824;49.648;8.640;2024-01-25T05:34:21;101634.44;;;5.95;100.00
46087;BME280;31824;49.648;8.640;2024-01-25T05:37:23;101636.03;;;6.00;100.00
46087;BME280;31824;49.648;8.640;2024-01-25T05:40:27;101640.81;;;5.97;100.00
46087;BME280;31824;49.648;8.640;2024-01-25T05:43:29;101645.81;;;5.83;100.00
46087;BME280;31824;49.648;8.640;2024-01-25T05:46:31;101656.66;;;5.86;100.00
46087;BME280;31824;49.648;8.640;2024-01-25T05:49:32;101661.19;;;5.74;100.00
46087;BME280;31824;49.648;8.640;2024-01-25T05:52:34;101674.44;;;5.75;100.00
46087;BME280;31824;49.648;8.640;2024-01-25T05:55:43;101673.59;;;5.82;100.00
46087;BME280;31824;49.648;8.640;2024-01-25T05:58:45;101684.22;;;5.84;100.00
46087;BME280;31824;49.648;8.640;2024-01-25T06:01:47;101679.75;;;5.96;100.00
46087;BME280;31824;49.648;8.640;2024-01-25T06:04:51;101687.69;;;6.03;100.00
46087;BME280;31824;49.648;8.640;2024-01-25T06:07:53;101690.38;;;5.97;100.00
46087;BME280;31824;49.648;8.640;2024-01-25T06:10:56;101684.50;;;6.18;100.00
46087;BME280;31824;49.648;8.640;2024-01-25T06:13:58;101689.03;;;6.39;100.00
46087;BME280;31824;49.648;8.640;2024-01-25T06:17:00;101700.91;;;6.70;100.00
46087;BME280;31824;49.648;8.640;2024-01-25T06:20:08;101691.97;;;6.68;100.00
46087;BME280;31824;49.648;8.640;2024-01-25T06:23:14;101696.38;;;6.82;100.00
46087;BME280;31824;49.648;8.640;2024-01-25T06:26:17;101685.25;;;6.70;100.00
46087;BME280;31824;49.648;8.640;2024-01-25T06:29:19;101685.13;;;6.56;100.00
46087;BME280;31824;49.648;8.640;2024-01-25T06:32:21;101682.97;;;6.46;100.00
46087;BME280;31824;49.648;8.640;2024-01-25T06:35:27;101686.75;;;6.35;100.00
46087;BME280;31824;49.648;8.640;2024-01-25T06:38:30;101683.00;;;6.33;100.00
46087;BME280;31824;49.648;8.640;2024-01-25T06:41:33;101683.41;;;6.36;100.00
46087;BME280;31824;49.648;8.640;2024-01-25T06:44:34;101689.06;;;6.27;100.00
46087;BME280;31824;49.648;8.640;2024-01-25T06:47:36;101692.84;;;6.29;100.00
46087;BME280;31824;49.648;8.640;2024-01-25T06:50:38;101690.44;;;6.30;100.00
46087;BME280;31824;49.648;8.640;2024-01-25T06:53:40;101690.22;;;6.29;100.00
46087;BME280;31824;49.648;8.640;2024-01-25T06:56:43;101686.09;;;6.11;100.00
46087;BME280;31824;49.648;8.640;2024-01-25T06:59:45;101683.59;;;6.05;100.00
46087;BME280;31824;49.648;8.640;2024-01-25T07:02:47;101683.91;;;5.88;100.00
46087;BME280;31824;49.648;8.640;2024-01-25T07:05:49;101687.16;;;5.80;100.00
46087;BME280;31824;49.648;8.640;2024-01-25T07:08:51;101680.88;;;5.72;100.00
46087;BME280;31824;49.648;8.640;2024-01-25T07:12:14;101690.19;;;5.57;100.00
46087;BME280;31824;49.648;8.640;2024-01-25T07:16:22;101688.91;;;5.48;100.00
46087;BME280;31824;49.648;8.640;2024-01-25T07:19:25;101685.38;;;5.47;100.00
46087;BME280;31824;49.648;8.640;2024-01-25T07:22:27;101697.25;;;5.71;100.00
46087;BME280;31824;49.648;8.640;2024-01-25T07:25:29;101700.81;;;5.58;100.00
46087;BME280;31824;49.648;8.640;2024-01-25T07:28:31;101713.00;;;5.65;100.00
46087;BME280;31824;49.648;8.640;2024-01-25T07:31:34;101721.25;;;5.55;100.00
46087;BME280;31824;49.648;8.640;2024-01-25T07:34:36;101718.66;;;5.55;100.00
46087;BME280;31824;49.648;8.640;2024-01-25T07:37:39;101727.91;;;5.53;100.00
46087;BME280;31824;49.648;8.640;2024-01-25T07:40:42;101724.59;;;5.41;100.00
46087;BME280;31824;49.648;8.640;2024-01-25T07:43:45;101725.50;;;5.42;100.00
46087;BME280;31824;49.648;8.640;2024-01-25T07:46:49;101726.16;;;5.47;100.00
46087;BME280;31824;49.648;8.640;2024-01-25T07:49:51;101729.50;;;5.46;100.00
46087;BME280;31824;49.648;8.640;2024-01-25T07:52:54;101734.06;;;5.67;100.00
46087;BME280;31824;49.648;8.640;2024-01-25T07:55:59;101738.88;;;5.64;100.00
46087;BME280;31824;49.648;8.640;2024-01-25T07:59:01;101742.09;;;5.68;100.00
46087;BME280;31824;49.648;8.640;2024-01-25T08:02:05;101738.78;;;5.56;100.00
46087;BME280;31824;49.648;8.640;2024-01-25T08:05:17;101745.78;;;5.63;100.00
46087;BME280;31824;49.648;8.640;2024-01-25T08:08:28;101745.22;;;5.91;100.00
46087;BME280;31824;49.648;8.640;2024-01-25T08:11:30;101736.53;;;6.04;100.00
46087;BME280;31824;49.648;8.640;2024-01-25T08:14:32;101738.69;;;6.01;100.00
46087;BME280;31824;49.648;8.640;2024-01-25T08:20:39;101745.78;;;5.89;100.00
46087;BME280;31824;49.648;8.640;2024-01-25T08:23:41;101750.47;;;5.79;100.00
46087;BME280;31824;49.648;8.640;2024-01-25T08:27:57;101754.50;;;5.77;100.00
46087;BME280;31824;49.648;8.640;2024-01-25T08:30:59;101747.84;;;5.79;100.00
46087;BME280;31824;49.648;8.640;2024-01-25T08:34:01;101746.28;;;5.73;100.00
46087;BME280;31824;49.648;8.640;2024-01-25T08:37:06;101751.59;;;5.68;100.00
46087;BME280;31824;49.648;8.640;2024-01-25T08:40:08;101757.13;;;5.64;100.00
46087;BME280;31824;49.648;8.640;2024-01-25T08:43:13;101756.41;;;5.78;100.00
46087;BME280;31824;49.648;8.640;2024-01-25T08:46:15;101763.81;;;5.74;100.00
46087;BME280;31824;49.648;8.640;2024-01-25T08:49:17;101767.47;;;5.82;100.00
46087;BME280;31824;49.648;8.640;2024-01-25T08:52:19;101766.66;;;6.02;100.00
46087;BME280;31824;49.648;8.640;2024-01-25T08:55:21;101766.88;;;6.03;100.00
46087;BME280;31824;49.648;8.640;2024-01-25T08:58:26;101776.03;;;6.20;100.00
46087;BME280;31824;49.648;8.640;2024-01-25T09:01:28;101777.50;;;6.31;100.00
46087;BME280;31824;49.648;8.640;2024-01-25T09:04:31;101774.22;;;6.52;100.00
46087;BME280;31824;49.648;8.640;2024-01-25T09:07:34;101769.06;;;6.59;100.00
46087;BME280;31824;49.648;8.640;2024-01-25T09:10:36;101780.69;;;6.61;100.00
46087;BME280;31824;49.648;8.640;2024-01-25T09:13:39;101777.50;;;6.76;100.00
46087;BME280;31824;49.648;8.640;2024-01-25T09:16:47;101775.19;;;6.72;100.00
46087;BME280;31824;49.648;8.640;2024-01-25T09:19:49;101774.19;;;6.98;100.00
46087;BME280;31824;49.648;8.640;2024-01-25T09:22:53;101767.53;;;7.07;100.00
46087;BME280;31824;49.648;8.640;2024-01-25T09:25:55;101772.16;;;7.22;100.00
46087;BME280;31824;49.648;8.640;2024-01-25T09:28:58;101770.34;;;7.29;100.00
46087;BME280;31824;49.648;8.640;2024-01-25T09:32:00;101775.84;;;7.37;100.00
46087;BME280;31824;49.648;8.640;2024-01-25T09:35:03;101768.72;;;7.56;100.00
46087;BME280;31824;49.648;8.640;2024-01-25T09:38:06;101758.75;;;7.74;100.00
46087;BME280;31824;49.648;8.640;2024-01-25T09:41:08;101770.19;;;7.82;100.00
46087;BME280;31824;49.648;8.640;2024-01-25T09:44:11;101769.31;;;7.88;100.00
46087;BME280;31824;49.648;8.640;2024-01-25T09:47:14;101775.63;;;7.83;100.00
46087;BME280;31824;49.648;8.640;2024-01-25T09:50:18;101776.38;;;7.82;100.00
46087;BME280;31824;49.648;8.640;2024-01-25T09:53:22;101773.53;;;8.08;100.00
46087;BME280;31824;49.648;8.640;2024-01-25T09:56:24;101770.38;;;8.10;100.00
46087;BME280;31824;49.648;8.640;2024-01-25T09:59:28;101774.34;;;8.21;100.00
46087;BME280;31824;49.648;8.640;2024-01-25T10:02:30;101775.09;;;8.55;100.00
46087;BME280;31824;49.648;8.640;2024-01-25T10:05:32;101781.13;;;8.61;100.00
46087;BME280;31824;49.648;8.640;2024-01-25T10:08:34;101784.13;;;8.64;100.00
46087;BME280;31824;49.648;8.640;2024-01-25T10:11:36;101780.56;;;8.64;100.00
46087;BME280;31824;49.648;8.640;2024-01-25T10:14:47;101783.44;;;8.87;100.00
46087;BME280;31824;49.648;8.640;2024-01-25T10:17:49;101783.66;;;9.03;100.00
46087;BME280;31824;49.648;8.640;2024-01-25T10:21:11;101767.53;;;9.07;100.00
46087;BME280;31824;49.648;8.640;2024-01-25T10:24:13;101766.66;;;9.21;100.00
46087;BME280;31824;49.648;8.640;2024-01-25T10:27:16;101776.00;;;9.26;100.00
46087;BME280;31824;49.648;8.640;2024-01-25T10:30:19;101772.44;;;9.25;100.00
46087;BME280;31824;49.648;8.640;2024-01-25T10:33:24;101779.19;;;9.45;100.00
46087;BME280;31824;49.648;8.640;2024-01-25T10:36:32;101770.03;;;9.63;100.00
46087;BME280;31824;49.648;8.640;2024-01-25T10:39:39;101765.31;;;9.68;100.00
46087;BME280;31824;49.648;8.640;2024-01-25T10:42:43;101767.56;;;9.86;100.00
46087;BME280;31824;49.648;8.640;2024-01-25T10:45:46;101775.75;;;10.11;100.00
46087;BME280;31824;49.648;8.640;2024-01-25T10:48:49;101773.81;;;10.24;100.00
46087;BME280;31824;49.648;8.640;2024-01-25T10:51:52;101781.31;;;10.21;100.00
46087;BME280;31824;49.648;8.640;2024-01-25T10:54:55;101778.47;;;10.41;100.00
46087;BME280;31824;49.648;8.640;2024-01-25T10:57:57;101784.53;;;10.19;100.00
46087;BME280;31824;49.648;8.640;2024-01-25T11:01:01;101796.47;;;10.45;100.00
46087;BME280;31824;49.648;8.640;2024-01-25T11:04:12;101770.59;;;10.34;100.00
46087;BME280;31824;49.648;8.640;2024-01-25T11:07:14;101779.47;;;10.13;100.00
46087;BME280;31824;49.648;8.640;2024-01-25T11:10:17;101763.88;;;10.22;100.00
46087;BME280;31824;49.648;8.640;2024-01-25T11:13:23;101758.03;;;10.39;100.00
46087;BME280;31824;49.648;8.640;2024-01-25T11:16:30;101762.63;;;10.63;100.00
46087;BME280;31824;49.648;8.640;2024-01-25T11:19:33;101758.31;;;10.56;100.00
46087;BME280;31824;49.648;8.640;2024-01-25T11:22:35;101750.78;;;10.97;100.00
46087;BME280;31824;49.648;8.640;2024-01-25T11:25:37;101745.19;;;10.56;100.00
46087;BME280;31824;49.648;8.640;2024-01-25T11:28:39;101754.66;;;10.77;100.00
46087;BME280;31824;49.648;8.640;2024-01-25T11:31:43;101748.69;;;10.71;100.00
46087;BME280;31824;49.648;8.640;2024-01-25T11:34:45;101742.09;;;10.75;100.00
46087;BME280;31824;49.648;8.640;2024-01-25T11:37:48;101748.44;;;10.77;100.00
46087;BME280;31824;49.648;8.640;2024-01-25T11:40:50;101741.88;;;10.80;100.00
46087;BME280;31824;49.648;8.640;2024-01-25T11:43:52;101733.63;;;10.77;100.00
46087;BME280;31824;49.648;8.640;2024-01-25T11:46:56;101735.63;;;10.57;100.00
46087;BME280;31824;49.648;8.640;2024-01-25T11:49:58;101732.91;;;11.02;100.00
46087;BME280;31824;49.648;8.640;2024-01-25T11:53:00;101726.66;;;11.08;100.00
46087;BME280;31824;49.648;8.640;2024-01-25T11:56:02;101725.88;;;11.09;100.00
46087;BME280;31824;49.648;8.640;2024-01-25T11:59:05;101715.91;;;11.37;100.00
46087;BME280;31824;49.648;8.640;2024-01-25T12:02:08;101713.94;;;11.27;100.00
46087;BME280;31824;49.648;8.640;2024-01-25T12:05:11;101719.94;;;11.03;100.00
46087;BME280;31824;49.648;8.640;2024-01-25T12:08:14;101711.72;;;10.93;100.00
46087;BME280;31824;49.648;8.640;2024-01-25T12:11:16;101695.06;;;11.55;100.00
46087;BME280;31824;49.648;8.640;2024-01-25T12:14:20;101699.72;;;12.12;100.00
46087;BME280;31824;49.648;8.640;2024-01-25T12:17:23;101701.06;;;11.54;100.00
46087;BME280;31824;49.648;8.640;2024-01-25T12:20:29;101700.19;;;11.46;100.00
46087;BME280;31824;49.648;8.640;2024-01-25T12:23:32;101694.06;;;11.77;100.00
46087;BME280;31824;49.648;8.640;2024-01-25T12:26:34;101689.88;;;11.24;100.00
46087;BME280;31824;49.648;8.640;2024-01-25T12:29:37;101678.31;;;12.09;100.00
46087;BME280;31824;49.648;8.640;2024-01-25T12:32:40;101667.81;;;11.86;100.00
46087;BME280;31824;49.648;8.640;2024-01-25T12:35:42;101652.25;;;12.44;100.00
46087;BME280;31824;49.648;8.640;2024-01-25T12:41:37;101638.97;;;12.36;100.00
46087;BME280;31824;49.648;8.640;2024-01-25T12:44:39;101635.63;;;11.89;100.00
46087;BME280;31824;49.648;8.640;2024-01-25T12:47:41;101642.34;;;12.10;100.00
46087;BME280;31824;49.648;8.640;2024-01-25T12:50:44;101640.16;;;12.30;100.00
46087;BME280;31824;49.648;8.640;2024-01-25T12:53:46;101645.69;;;12.65;100.00
46087;BME280;31824;49.648;8.640;2024-01-25T12:56:49;101651.38;;;12.53;100.00
46087;BME280;31824;49.648;8.640;2024-01-25T12:59:52;101647.78;;;12.52;100.00
46087;BME280;31824;49.648;8.640;2024-01-25T13:02:54;101637.28;;;11.95;100.00
46087;BME280;31824;49.648;8.640;2024-01-25T13:05:57;101628.38;;;12.76;100.00
46087;BME280;31824;49.648;8.640;2024-01-25T13:08:59;101626.16;;;12.97;100.00
46087;BME280;31824;49.648;8.640;2024-01-25T13:12:03;101623.59;;;13.14;100.00
46087;BME280;31824;49.648;8.640;2024-01-25T13:15:06;101616.09;;;13.02;100.00
46087;BME280;31824;49.648;8.640;2024-01-25T13:18:28;101623.53;;;13.39;100.00
46087;BME280;31824;49.648;8.640;2024-01-25T13:21:40;101613.97;;;12.32;100.00
46087;BME280;31824;49.648;8.640;2024-01-25T13:24:42;101605.84;;;12.71;100.00
46087;BME280;31824;49.648;8.640;2024-01-25T13:27:46;101606.06;;;13.92;100.00
46087;BME280;31824;49.648;8.640;2024-01-25T13:30:48;101586.91;;;14.65;100.00
46087;BME280;31824;49.648;8.640;2024-01-25T13:33:50;101594.72;;;14.19;100.00
46087;BME280;31824;49.648;8.640;2024-01-25T13:36:52;101586.84;;;13.25;100.00
46087;BME280;31824;49.648;8.640;2024-01-25T13:39:54;101584.03;;;12.81;100.00
46087;BME280;31824;49.648;8.640;2024-01-25T13:42:57;101586.94;;;13.09;100.00
46087;BME280;31824;49.648;8.640;2024-01-25T13:45:59;101587.06;;;12.59;100.00
46087;BME280;31824;49.648;8.640;2024-01-25T13:49:03;101587.66;;;12.90;100.00
46087;BME280;31824;49.648;8.640;2024-01-25T13:52:05;101578.22;;;13.43;100.00
46087;BME280;31824;49.648;8.640;2024-01-25T13:55:08;101574.22;;;14.08;100.00
46087;BME280;31824;49.648;8.640;2024-01-25T13:58:11;101572.91;;;13.34;100.00
46087;BME280;31824;49.648;8.640;2024-01-25T14:01:13;101570.44;;;12.60;100.00
46087;BME280;31824;49.648;8.640;2024-01-25T14:04:15;101573.84;;;12.10;100.00
46087;BME280;31824;49.648;8.640;2024-01-25T14:07:37;101579.91;;;11.77;100.00
46087;BME280;31824;49.648;8.640;2024-01-25T14:10:46;101578.41;;;11.63;100.00
46087;BME280;31824;49.648;8.640;2024-01-25T14:13:49;101581.63;;;11.76;100.00
46087;BME280;31824;49.648;8.640;2024-01-25T14:16:51;101583.72;;;11.88;100.00
46087;BME280;31824;49.648;8.640;2024-01-25T14:19:53;101582.38;;;11.75;100.00
46087;BME280;31824;49.648;8.640;2024-01-25T14:22:56;101582.06;;;11.56;100.00
46087;BME280;31824;49.648;8.640;2024-01-25T14:25:58;101573.63;;;11.52;100.00
46087;BME280;31824;49.648;8.640;2024-01-25T14:29:01;101566.56;;;11.11;100.00
46087;BME280;31824;49.648;8.640;2024-01-25T14:32:04;101558.69;;;11.11;100.00
46087;BME280;31824;49.648;8.640;2024-01-25T14:35:06;101559.75;;;11.13;100.00
46087;BME280;31824;49.648;8.640;2024-01-25T14:38:09;101562.91;;;11.02;100.00
46087;BME280;31824;49.648;8.640;2024-01-25T14:41:11;101568.16;;;11.02;100.00
46087;BME280;31824;49.648;8.640;2024-01-25T14:44:15;101561.19;;;10.87;100.00
46087;BME280;31824;49.648;8.640;2024-01-25T14:47:16;101562.69;;;10.85;100.00
46087;BME280;31824;49.648;8.640;2024-01-25T14:50:23;101571.13;;;10.89;100.00
46087;BME280;31824;49.648;8.640;2024-01-25T14:53:28;101562.44;;;10.90;100.00
46087;BME280;31824;49.648;8.640;2024-01-25T14:56:29;101565.06;;;10.90;100.00
46087;BME280;31824;49.648;8.640;2024-01-25T14:59:33;101561.81;;;10.77;100.00
46087;BME280;31824;49.648;8.640;2024-01-25T15:02:35;101559.09;;;10.68;100.00
46087;BME280;31824;49.648;8.640;2024-01-25T15:05:37;101563.22;;;10.66;100.00
46087;BME280;31824;49.648;8.640;2024-01-25T15:08:40;101563.28;;;10.59;100.00
46087;BME280;31824;49.648;8.640;2024-01-25T15:11:43;101570.81;;;10.56;100.00
46087;BME280;31824;49.648;8.640;2024-01-25T15:14:46;101566.31;;;10.55;100.00
46087;BME280;31824;49.648;8.640;2024-01-25T15:17:48;101566.50;;;10.56;100.00
46087;BME280;31824;49.648;8.640;2024-01-25T15:20:51;101562.38;;;10.51;100.00
46087;BME280;31824;49.648;8.640;2024-01-25T15:23:54;101545.19;;;10.46;100.00
46087;BME280;31824;49.648;8.640;2024-01-25T15:26:56;101544.13;;;10.37;100.00
46087;BME280;31824;49.648;8.640;2024-01-25T15:29:59;101525.41;;;10.26;100.00
46087;BME280;31824;49.648;8.640;2024-01-25T15:33:01;101519.72;;;10.07;100.00
46087;BME280;31824;49.648;8.640;2024-01-25T15:36:04;101521.66;;;10.01;100.00
46087;BME280;31824;49.648;8.640;2024-01-25T15:39:06;101512.75;;;9.85;100.00
46087;BME280;31824;49.648;8.640;2024-01-25T15:42:09;101502.50;;;9.72;100.00
46087;BME280;31824;49.648;8.640;2024-01-25T15:45:12;101514.75;;;9.57;100.00
46087;BME280;31824;49.648;8.640;2024-01-25T15:48:14;101506.38;;;9.52;100.00
46087;BME280;31824;49.648;8.640;2024-01-25T15:51:16;101498.63;;;9.61;100.00
46087;BME280;31824;49.648;8.640;2024-01-25T15:54:18;101487.81;;;9.51;100.00
46087;BME280;31824;49.648;8.640;2024-01-25T15:57:20;101498.91;;;9.41;100.00
46087;BME280;31824;49.648;8.640;2024-01-25T16:00:23;101493.72;;;9.26;100.00
46087;BME280;31824;49.648;8.640;2024-01-25T16:03:25;101494.13;;;9.22;100.00
46087;BME280;31824;49.648;8.640;2024-01-25T16:06:27;101490.16;;;9.26;100.00
46087;BME280;31824;49.648;8.640;2024-01-25T16:09:29;101483.84;;;9.17;100.00